Time;durP1;ratioP1;P1;durP2;ratioP2;P2;SDS_P1;SDS_P2;PMS_P1;PMS_P2;Temp;Humidity;BMP_temperature;BMP_pressure;BME280_temperature;BME280_humidity;BME280_pressure;Samples;Min_cycle;Max_cycle;Signal;HPM_P1;HPM_P2
2023/08/06 00:00:00;;;;;;;17.70;12.30;;;;;;;19.50;96.30;99354.66;102539;277;114234;-58
2023/08/06 00:02:38;;;;;;;17.30;12.10;;;;;;;19.50;96.03;99351.38;102507;277;96980;-58
2023/08/06 00:05:21;;;;;;;19.20;11.90;;;;;;;19.52;96.16;99345.02;102552;277;97577;-55
2023/08/06 00:07:57;;;;;;;14.60;10.50;;;;;;;19.53;96.29;99342.22;102563;277;120421;-55
2023/08/06 00:10:35;;;;;;;18.30;11.50;;;;;;;19.50;96.48;99336.84;102598;277;104682;-54
2023/08/06 00:13:17;;;;;;;15.50;10.50;;;;;;;19.50;96.49;99343.53;102699;277;113512;-54
2023/08/06 00:16:09;;;;;;;15.90;11.60;;;;;;;19.52;96.53;99360.04;102698;277;97045;-55
2023/08/06 00:18:50;;;;;;;17.90;12.10;;;;;;;19.55;96.19;99370.06;102706;277;96452;-57
2023/08/06 00:21:30;;;;;;;17.10;10.90;;;;;;;19.59;96.20;99374.88;102703;277;120606;-57
2023/08/06 00:24:10;;;;;;;15.90;11.50;;;;;;;19.59;96.16;99368.41;102728;277;106230;-57
2023/08/06 00:26:45;;;;;;;16.50;11.90;;;;;;;19.59;96.25;99367.98;102624;277;114912;-57
2023/08/06 00:29:21;;;;;;;14.60;11.70;;;;;;;19.57;96.38;99366.45;102727;277;97134;-55
2023/08/06 00:31:58;;;;;;;16.00;12.00;;;;;;;19.56;96.25;99363.98;102691;277;98214;-55
2023/08/06 00:34:35;;;;;;;15.00;12.00;;;;;;;19.55;96.26;99355.05;102716;277;120360;-54
2023/08/06 00:37:10;;;;;;;13.90;11.60;;;;;;;19.51;96.39;99342.27;102704;277;104428;-54
2023/08/06 00:39:48;;;;;;;13.30;11.60;;;;;;;19.47;96.57;99335.42;102708;277;113558;-54
2023/08/06 00:42:24;;;;;;;12.30;11.00;;;;;;;19.45;96.75;99332.46;102655;277;96902;-53
2023/08/06 00:44:59;;;;;;;13.00;10.90;;;;;;;19.46;96.60;99324.67;102720;277;97754;-56
2023/08/06 00:47:35;;;;;;;13.00;10.50;;;;;;;19.42;96.72;99311.42;102748;277;120860;-58
2023/08/06 00:50:16;;;;;;;11.50;10.30;;;;;;;19.38;96.86;99313.05;102743;277;105447;-55
2023/08/06 00:52:54;;;;;;;10.90;9.80;;;;;;;19.35;97.12;99307.78;102727;277;114247;-55
2023/08/06 00:55:29;;;;;;;12.00;10.30;;;;;;;19.30;97.21;99296.48;102485;278;97546;-59
2023/08/06 00:58:07;;;;;;;15.30;9.90;;;;;;;19.29;97.28;99285.37;102692;277;97665;-58
2023/08/06 01:00:49;;;;;;;11.80;10.50;;;;;;;19.24;97.53;99270.20;102696;277;119884;-58
2023/08/06 01:03:32;;;;;;;11.60;9.80;;;;;;;19.25;97.36;99252.52;102707;277;105294;-58
2023/08/06 01:06:21;;;;;;;14.10;9.70;;;;;;;19.24;97.58;99246.65;102697;277;114531;-57
2023/08/06 01:09:07;;;;;;;9.80;8.80;;;;;;;19.24;97.56;99234.27;102688;277;96744;-54
2023/08/06 01:11:49;;;;;;;;;;;;;;;19.27;97.77;99230.27;102498;277;95941;-54
2023/08/06 01:14:39;;;;;;;10.10;9.10;;;;;;;19.24;97.85;99224.90;102540;277;121293;-56
2023/08/06 01:17:15;;;;;;;14.30;9.90;;;;;;;19.24;97.90;99214.83;102514;277;106001;-56
2023/08/06 01:19:53;;;;;;;10.80;9.70;;;;;;;19.16;98.36;99203.02;102560;277;114666;-56
2023/08/06 01:22:36;;;;;;;12.50;9.00;;;;;;;19.11;98.73;99193.36;102489;278;96544;-56
2023/08/06 01:25:20;;;;;;;10.70;9.60;;;;;;;19.10;98.76;99183.56;102560;277;98156;-55
2023/08/06 01:28:04;;;;;;;11.10;10.00;;;;;;;19.08;98.73;99161.77;102538;278;121408;-55
2023/08/06 01:30:48;;;;;;;12.00;10.30;;;;;;;19.09;98.86;99146.33;102518;277;105792;-55
2023/08/06 01:33:36;;;;;;;10.00;9.00;;;;;;;19.07;99.03;99133.08;102503;277;114261;-56
2023/08/06 01:36:13;;;;;;;10.50;8.90;;;;;;;19.10;98.88;99122.30;102522;277;96760;-57
2023/08/06 01:38:52;;;;;;;10.20;8.70;;;;;;;19.09;99.22;99113.48;102539;277;98457;-55
2023/08/06 01:41:34;;;;;;;10.10;9.10;;;;;;;19.09;99.38;99104.72;102520;277;120323;-55
2023/08/06 01:44:10;;;;;;;10.30;9.20;;;;;;;19.11;99.21;99095.46;102537;277;104360;-53
2023/08/06 01:46:47;;;;;;;10.30;9.20;;;;;;;19.12;99.13;99091.34;102556;277;114470;-54
2023/08/06 01:49:25;;;;;;;11.90;8.80;;;;;;;19.14;99.30;99082.98;102543;277;96412;-56
2023/08/06 01:52:05;;;;;;;10.90;9.10;;;;;;;19.13;99.37;99087.46;102522;277;97300;-55
2023/08/06 01:54:45;;;;;;;9.70;8.60;;;;;;;19.13;99.39;99077.84;102514;278;121130;-55
2023/08/06 01:57:29;;;;;;;10.90;9.10;;;;;;;19.15;99.50;99075.95;102499;277;105569;-55
2023/08/06 02:00:12;;;;;;;11.60;9.70;;;;;;;19.17;99.35;99074.31;102534;277;114499;-57
2023/08/06 02:02:48;;;;;;;10.80;9.10;;;;;;;19.20;99.56;99070.81;102465;277;96955;-56
2023/08/06 02:05:30;;;;;;;11.20;9.20;;;;;;;19.20;99.51;99072.98;102535;277;97131;-56
2023/08/06 02:08:06;;;;;;;10.70;8.90;;;;;;;19.19;99.75;99071.46;102537;278;120240;-55
2023/08/06 02:10:43;;;;;;;11.40;8.40;;;;;;;19.16;99.92;99067.36;102539;277;105233;-56
2023/08/06 02:13:21;;;;;;;10.30;8.60;;;;;;;19.18;99.99;99063.91;102520;277;114842;-56
2023/08/06 02:15:59;;;;;;;8.60;7.70;;;;;;;19.18;99.95;99066.04;102504;277;97357;-54
2023/08/06 02:18:40;;;;;;;8.70;7.80;;;;;;;19.16;100.00;99064.62;102531;277;97407;-54
2023/08/06 02:21:16;;;;;;;9.40;8.10;;;;;;;19.21;99.90;99053.66;102533;277;118804;-54
2023/08/06 02:23:55;;;;;;;8.80;7.90;;;;;;;19.22;99.93;99047.42;102529;277;105410;-55
2023/08/06 02:26:31;;;;;;;9.50;7.50;;;;;;;19.20;99.99;99044.58;102528;277;113793;-55
2023/08/06 02:29:08;;;;;;;9.60;7.30;;;;;;;19.22;99.96;99041.61;102478;277;95654;-55
2023/08/06 02:31:44;;;;;;;8.50;7.60;;;;;;;19.20;100.00;99038.22;102559;277;96475;-55
2023/08/06 02:34:23;;;;;;;10.60;8.10;;;;;;;19.22;100.00;99038.66;102562;277;121190;-54
2023/08/06 02:37:02;;;;;;;9.00;7.50;;;;;;;19.22;100.00;99041.45;102518;277;105648;-55
2023/08/06 02:39:40;;;;;;;8.30;7.40;;;;;;;19.23;100.00;99049.33;102541;277;114433;-57
2023/08/06 02:42:19;;;;;;;8.40;7.50;;;;;;;19.24;100.00;99049.55;102541;277;96493;-57
2023/08/06 02:44:58;;;;;;;8.10;7.20;;;;;;;19.29;100.00;99044.05;102530;277;98658;-58
2023/08/06 02:47:37;;;;;;;8.00;7.10;;;;;;;19.29;100.00;99036.77;102549;277;118611;-58
2023/08/06 02:50:15;;;;;;;9.30;7.50;;;;;;;19.31;100.00;99033.75;102430;278;105617;-58
2023/08/06 02:52:57;;;;;;;8.80;7.40;;;;;;;19.34;100.00;99027.77;102483;278;113507;-57
2023/08/06 02:55:47;;;;;;;8.00;7.20;;;;;;;19.33;100.00;99019.29;102519;278;96802;-54
2023/08/06 02:58:25;;;;;;;10.00;8.10;;;;;;;19.35;100.00;99016.38;102530;279;98198;-55
2023/08/06 03:01:08;;;;;;;9.20;7.90;;;;;;;19.36;100.00;99014.52;102500;279;121544;-54
2023/08/06 03:03:44;;;;;;;10.10;8.50;;;;;;;19.35;100.00;99009.26;102540;278;103752;-54
2023/08/06 03:06:27;;;;;;;10.60;8.60;;;;;;;19.40;100.00;99003.73;102473;278;114571;-54
2023/08/06 03:09:06;;;;;;;9.90;8.20;;;;;;;19.41;100.00;98993.54;102531;278;97236;-56
2023/08/06 03:11:42;;;;;;;9.50;8.60;;;;;;;19.38;100.00;98986.08;102522;278;98164;-56
2023/08/06 03:14:21;;;;;;;10.30;9.10;;;;;;;19.40;100.00;98982.30;102164;277;485626;-57
2023/08/06 03:17:00;;;;;;;9.90;8.70;;;;;;;19.39;100.00;98984.35;102566;277;105295;-57
2023/08/06 03:19:38;;;;;;;9.90;8.50;;;;;;;19.35;100.00;98980.55;102535;277;114955;-55
2023/08/06 03:22:19;;;;;;;11.00;8.80;;;;;;;19.36;100.00;98970.05;102582;277;96747;-55
2023/08/06 03:24:59;;;;;;;11.10;9.20;;;;;;;19.40;100.00;98964.08;102560;277;98360;-53
2023/08/06 03:27:39;;;;;;;11.60;9.50;;;;;;;19.42;100.00;98959.95;102520;277;121703;-54
2023/08/06 03:30:14;;;;;;;11.50;8.50;;;;;;;19.43;100.00;98957.54;102554;277;105772;-57
2023/08/06 03:32:55;;;;;;;11.40;10.30;;;;;;;19.46;100.00;98949.21;102525;277;114115;-58
2023/08/06 03:35:34;;;;;;;11.40;9.60;;;;;;;19.46;100.00;98944.59;102602;277;96995;-55
2023/08/06 03:38:13;;;;;;;11.90;9.50;;;;;;;19.45;100.00;98930.30;102555;266;96009;-55
2023/08/06 03:40:52;;;;;;;12.50;10.70;;;;;;;19.48;100.00;98926.50;102581;277;118654;-54
2023/08/06 03:43:36;;;;;;;11.40;10.00;;;;;;;19.52;100.00;98917.17;102553;277;105927;-55
2023/08/06 03:46:12;;;;;;;14.40;11.30;;;;;;;19.55;100.00;98904.17;102527;277;113869;-57
2023/08/06 03:48:54;;;;;;;14.80;11.20;;;;;;;19.58;100.00;98899.05;102563;277;97418;-54
2023/08/06 03:51:34;;;;;;;15.00;12.60;;;;;;;19.58;100.00;98895.82;102566;266;97094;-54
2023/08/06 03:54:16;;;;;;;15.20;11.30;;;;;;;19.58;100.00;98890.88;102562;277;120443;-55
2023/08/06 03:56:54;;;;;;;12.40;11.00;;;;;;;19.56;100.00;98882.25;102555;277;105097;-55
2023/08/06 03:59:35;;;;;;;17.80;12.30;;;;;;;19.56;100.00;98879.84;102571;277;114550;-56
2023/08/06 04:02:15;;;;;;;15.80;12.60;;;;;;;19.60;100.00;98873.98;102541;277;96886;-56
2023/08/06 04:04:53;;;;;;;15.70;11.60;;;;;;;19.66;100.00;98865.63;102537;277;97105;-58
2023/08/06 04:07:32;;;;;;;16.50;12.50;;;;;;;19.71;100.00;98856.05;102536;277;121381;-58
2023/08/06 04:10:11;;;;;;;19.70;14.50;;;;;;;19.76;100.00;98848.61;102561;277;105401;-55
2023/08/06 04:12:50;;;;;;;19.50;16.20;;;;;;;19.76;100.00;98843.08;102513;277;114725;-56
2023/08/06 04:15:31;;;;;;;25.80;19.20;;;;;;;19.77;100.00;98835.40;102575;277;96733;-54
2023/08/06 04:18:10;;;;;;;24.10;17.90;;;;;;;19.82;100.00;98829.20;102539;277;97565;-55
2023/08/06 04:20:55;;;;;;;25.50;17.90;;;;;;;19.85;100.00;98824.70;102545;277;121000;-56
2023/08/06 04:23:32;;;;;;;21.40;17.40;;;;;;;19.87;100.00;98825.33;102565;277;106375;-56
2023/08/06 04:26:07;;;;;;;19.70;15.30;;;;;;;19.89;100.00;98824.11;102516;277;114272;-57
2023/08/06 04:28:46;;;;;;;17.60;14.80;;;;;;;19.89;100.00;98820.54;102584;277;95872;-57
2023/08/06 04:31:25;;;;;;;16.80;14.30;;;;;;;19.89;100.00;98824.81;102558;277;97732;-57
2023/08/06 04:34:06;;;;;;;16.30;13.90;;;;;;;19.91;100.00;98825.02;102536;277;120854;-55
2023/08/06 04:36:49;;;;;;;17.80;14.40;;;;;;;19.93;100.00;98821.98;102495;277;106630;-55
2023/08/06 04:39:26;;;;;;;16.50;14.30;;;;;;;19.95;100.00;98819.34;102560;277;114656;-56
2023/08/06 04:42:03;;;;;;;16.50;14.60;;;;;;;20.01;100.00;98820.41;102499;277;97067;-56
2023/08/06 04:44:40;;;;;;;18.70;15.20;;;;;;;20.06;100.00;98817.97;102588;277;97162;-56
2023/08/06 04:47:22;;;;;;;16.00;13.70;;;;;;;20.11;100.00;98812.38;102561;277;121532;-55
2023/08/06 04:49:56;;;;;;;15.40;13.80;;;;;;;20.17;100.00;98808.36;102505;277;104138;-58
2023/08/06 04:52:36;;;;;;;16.50;14.70;;;;;;;20.20;100.00;98804.17;102422;277;116434;-57
2023/08/06 04:55:16;;;;;;;17.90;14.30;;;;;;;20.23;100.00;98799.20;102527;277;97861;-54
2023/08/06 04:57:55;;;;;;;16.40;14.60;;;;;;;20.24;100.00;98794.17;102525;277;97852;-54
2023/08/06 05:00:38;;;;;;;16.70;15.10;;;;;;;20.35;100.00;98787.35;102568;277;119428;-54
2023/08/06 05:03:18;;;;;;;17.10;15.30;;;;;;;20.46;100.00;98784.38;102545;277;104774;-54
2023/08/06 05:06:00;;;;;;;16.60;15.00;;;;;;;20.54;100.00;98782.40;102558;277;114266;-55
2023/08/06 05:08:35;;;;;;;15.80;14.20;;;;;;;20.59;100.00;98782.55;102496;277;97401;-56
2023/08/06 05:11:12;;;;;;;17.00;13.90;;;;;;;20.63;100.00;98778.99;102512;277;97907;-57
2023/08/06 05:13:50;;;;;;;16.70;15.00;;;;;;;20.78;100.00;98776.59;102529;277;120159;-55
2023/08/06 05:16:30;;;;;;;15.80;14.10;;;;;;;21.07;100.00;98765.45;102527;277;104596;-55
2023/08/06 05:19:08;;;;;;;17.90;14.00;;;;;;;21.21;100.00;98754.09;102550;277;113269;-58
2023/08/06 05:21:44;;;;;;;15.20;13.70;;;;;;;21.46;100.00;98752.86;102467;277;97293;-58
2023/08/06 05:24:22;;;;;;;15.30;13.40;;;;;;;21.74;99.98;98750.12;102561;277;98961;-54
2023/08/06 05:27:02;;;;;;;14.30;12.80;;;;;;;22.22;99.65;98748.48;102525;277;121070;-54
2023/08/06 05:29:38;;;;;;;15.20;13.60;;;;;;;22.70;98.87;98743.53;102545;277;105453;-58
2023/08/06 05:32:13;;;;;;;14.40;13.00;;;;;;;23.17;97.50;98743.52;102531;277;114139;-57
2023/08/06 05:34:50;;;;;;;17.10;13.00;;;;;;;23.49;96.13;98737.85;102517;277;96969;-55
2023/08/06 05:37:25;;;;;;;14.40;12.40;;;;;;;24.03;95.64;98737.93;102558;277;97726;-54
2023/08/06 05:40:04;;;;;;;14.10;12.30;;;;;;;25.09;93.86;98733.65;102563;277;121261;-57
2023/08/06 05:42:42;;;;;;;14.20;12.80;;;;;;;26.24;91.98;98724.98;102534;278;104329;-56
2023/08/06 05:45:23;;;;;;;15.00;12.00;;;;;;;27.50;89.09;98719.20;102560;277;114126;-56
2023/08/06 05:48:00;;;;;;;12.70;11.50;;;;;;;28.25;86.12;98715.35;102507;277;94959;-56
2023/08/06 05:50:38;;;;;;;13.00;11.70;;;;;;;29.10;83.41;98714.04;102527;277;97524;-55
2023/08/06 05:53:23;;;;;;;11.90;10.70;;;;;;;30.11;80.83;98703.84;102501;277;121237;-55
2023/08/06 05:56:01;;;;;;;11.40;10.30;;;;;;;30.73;78.13;98694.90;102587;277;105902;-59
2023/08/06 05:58:38;;;;;;;11.30;10.00;;;;;;;31.30;75.43;98691.60;102509;277;113748;-58
2023/08/06 06:01:17;;;;;;;10.90;9.90;;;;;;;31.72;73.51;98688.64;102525;277;94604;-56
2023/08/06 06:03:55;;;;;;;10.30;9.40;;;;;;;32.33;71.14;98678.15;102565;277;98051;-58
2023/08/06 06:06:32;;;;;;;10.00;9.00;;;;;;;32.77;68.99;98679.60;102523;277;120338;-58
2023/08/06 06:09:14;;;;;;;10.90;9.00;;;;;;;32.89;66.91;98675.92;102538;277;106185;-58
2023/08/06 06:11:56;;;;;;;10.10;9.10;;;;;;;33.38;64.92;98681.79;102521;277;113612;-58
2023/08/06 06:14:33;;;;;;;8.80;8.10;;;;;;;33.73;63.68;98678.52;102538;277;95388;-58
2023/08/06 06:17:08;;;;;;;9.50;8.40;;;;;;;34.04;61.57;98676.34;102519;277;97864;-59
2023/08/06 06:19:44;;;;;;;8.70;7.90;;;;;;;33.80;57.63;98675.06;102550;277;119659;-56
2023/08/06 06:22:27;;;;;;;8.80;7.90;;;;;;;33.65;58.32;98672.20;102539;277;104720;-56
2023/08/06 06:25:10;;;;;;;9.10;8.00;;;;;;;34.22;57.46;98664.58;102544;277;115028;-54
2023/08/06 06:27:51;;;;;;;8.30;7.50;;;;;;;34.73;56.55;98662.67;102551;277;94727;-55
2023/08/06 06:30:31;;;;;;;9.90;7.70;;;;;;;34.71;55.43;98654.16;102559;277;98146;-55
2023/08/06 06:33:15;;;;;;;9.20;8.30;;;;;;;33.80;54.05;98657.19;102543;277;120137;-55
2023/08/06 06:35:51;;;;;;;8.50;7.70;;;;;;;33.18;55.33;98646.91;102543;277;104377;-54
2023/08/06 06:38:31;;;;;;;8.20;7.50;;;;;;;33.39;55.35;98653.23;102556;277;114205;-54
2023/08/06 06:41:19;;;;;;;7.70;6.80;;;;;;;33.49;54.24;98654.39;102567;277;95308;-54
2023/08/06 06:43:55;;;;;;;10.70;7.80;;;;;;;32.45;54.42;98654.14;102573;277;97882;-55
2023/08/06 06:46:35;;;;;;;7.90;7.20;;;;;;;31.21;55.19;98647.80;102516;277;120108;-56
2023/08/06 06:49:16;;;;;;;8.40;7.50;;;;;;;30.52;56.71;98643.43;102609;277;106148;-55
2023/08/06 06:51:52;;;;;;;9.20;7.50;;;;;;;31.96;57.27;98640.85;102558;277;114640;-54
2023/08/06 06:54:32;;;;;;;7.80;7.10;;;;;;;33.21;55.78;98634.45;102550;277;94894;-58
2023/08/06 06:57:13;;;;;;;8.50;7.40;;;;;;;33.56;54.62;98631.93;102536;277;98090;-58
2023/08/06 06:59:51;;;;;;;7.30;6.60;;;;;;;33.08;54.71;98627.98;102526;277;121600;-55
2023/08/06 07:02:31;;;;;;;8.40;7.20;;;;;;;32.87;54.15;98627.30;102588;277;105985;-55
2023/08/06 07:05:10;;;;;;;8.20;7.00;;;;;;;32.91;53.99;98625.42;102548;277;114970;-55
2023/08/06 07:07:47;;;;;;;7.90;6.90;;;;;;;33.08;53.50;98622.08;102510;277;94696;-54
2023/08/06 07:10:29;;;;;;;9.60;7.10;;;;;;;33.00;52.70;98631.39;102566;277;96871;-59
2023/08/06 07:13:08;;;;;;;8.30;7.20;;;;;;;33.01;52.96;98630.05;102576;277;121896;-58
2023/08/06 07:15:49;;;;;;;8.00;7.00;;;;;;;34.24;52.58;98627.17;102549;277;105767;-56
2023/08/06 07:18:29;;;;;;;9.90;7.30;;;;;;;35.08;50.26;98626.30;102524;277;114797;-56
2023/08/06 07:21:11;;;;;;;9.00;6.70;;;;;;;35.30;49.84;98626.15;102518;277;95123;-54
2023/08/06 07:23:55;;;;;;;8.60;6.70;;;;;;;35.71;48.33;98630.38;102587;277;96983;-55
2023/08/06 07:26:35;;;;;;;7.70;6.80;;;;;;;35.67;48.17;98625.13;102485;277;121506;-55
2023/08/06 07:29:19;;;;;;;11.30;6.70;;;;;;;35.04;48.19;98630.13;102500;278;105783;-58
2023/08/06 07:31:59;;;;;;;8.40;6.80;;;;;;;34.77;48.70;98623.57;102518;278;114750;-58
2023/08/06 07:34:36;;;;;;;8.70;7.40;;;;;;;34.96;47.90;98625.20;102523;277;96574;-58
2023/08/06 07:37:14;;;;;;;9.10;7.00;;;;;;;35.19;47.95;98617.62;102555;277;96393;-58
2023/08/06 07:39:51;;;;;;;8.30;6.80;;;;;;;35.35;47.54;98621.19;102610;277;118165;-59
2023/08/06 07:42:27;;;;;;;7.80;7.10;;;;;;;35.53;47.67;98620.04;102589;277;105779;-67
2023/08/06 07:45:06;;;;;;;7.00;6.20;;;;;;;35.20;46.98;98617.44;102600;277;116133;-67
2023/08/06 07:47:44;;;;;;;8.10;6.80;;;;;;;35.52;47.31;98615.15;102576;277;92537;-66
2023/08/06 07:50:21;;;;;;;7.20;6.50;;;;;;;35.57;46.47;98616.52;102599;270;96995;-66
2023/08/06 07:53:00;;;;;;;7.30;6.60;;;;;;;35.50;45.92;98615.45;102480;277;119335;-66
2023/08/06 07:55:38;;;;;;;10.50;7.30;;;;;;;35.77;46.28;98610.14;102559;266;105877;-65
2023/08/06 07:58:13;;;;;;;9.80;6.60;;;;;;;35.59;45.80;98612.83;102494;277;112172;-69
2023/08/06 08:00:53;;;;;;;8.70;6.60;;;;;;;34.79;46.30;98618.67;102557;277;94479;-66
2023/08/06 08:03:40;;;;;;;7.60;6.70;;;;;;;34.37;46.83;98611.91;102598;277;96789;-65
2023/08/06 08:06:23;;;;;;;9.40;6.80;;;;;;;34.43;47.26;98613.48;102566;276;121062;-66
2023/08/06 08:08:55;;;;;;;;;;;;;;;34.99;46.55;98607.96;102594;277;106225;-65
2023/08/06 08:11:36;;;;;;;8.10;7.20;;;;;;;34.31;45.88;98606.89;102554;277;113240;-66
2023/08/06 08:14:11;;;;;;;8.90;7.40;;;;;;;33.63;46.75;98604.30;102636;277;93185;-64
2023/08/06 08:16:55;;;;;;;10.50;7.10;;;;;;;33.83;47.73;98601.05;102582;277;96614;-64
2023/08/06 08:19:35;;;;;;;8.90;6.40;;;;;;;35.41;47.38;98595.34;102581;277;119560;-66
2023/08/06 08:22:12;;;;;;;7.50;6.70;;;;;;;36.63;45.72;98598.55;102573;277;105151;-66
2023/08/06 08:24:49;;;;;;;8.90;6.80;;;;;;;37.14;44.76;98590.25;102579;277;114883;-62
2023/08/06 08:27:31;;;;;;;9.10;6.60;;;;;;;37.23;43.41;98584.50;102550;266;93206;-65
2023/08/06 08:30:16;;;;;;;8.00;6.70;;;;;;;37.22;42.73;98586.27;102569;277;97192;-66
2023/08/06 08:32:53;;;;;;;11.10;7.00;;;;;;;36.98;43.41;98583.56;102573;277;120383;-66
2023/08/06 08:35:32;;;;;;;9.40;7.40;;;;;;;37.34;43.01;98578.16;102595;277;105980;-64
2023/08/06 08:38:06;;;;;;;8.40;6.50;;;;;;;37.96;42.85;98570.51;102560;277;113510;-66
2023/08/06 08:40:52;;;;;;;8.10;7.10;;;;;;;38.28;42.13;98568.61;102611;277;95253;-66
2023/08/06 08:43:34;;;;;;;7.40;6.60;;;;;;;38.52;41.92;98558.63;102560;277;97808;-66
2023/08/06 08:46:16;;;;;;;9.50;6.80;;;;;;;38.65;40.96;98562.25;102579;277;120173;-66
2023/08/06 08:48:52;;;;;;;7.10;6.40;;;;;;;38.51;40.19;98567.74;102571;277;106088;-62
2023/08/06 08:51:34;;;;;;;7.50;6.70;;;;;;;37.68;39.61;98567.57;102561;277;114062;-65
2023/08/06 08:54:17;;;;;;;8.10;6.50;;;;;;;37.05;40.74;98571.15;102523;277;92640;-64
2023/08/06 08:56:56;;;;;;;10.40;6.80;;;;;;;36.80;41.13;98565.20;102548;277;97302;-64
2023/08/06 08:59:34;;;;;;;7.00;6.30;;;;;;;36.85;41.54;98563.66;102439;277;123207;-65
2023/08/06 09:02:16;;;;;;;8.20;6.20;;;;;;;36.79;41.32;98556.69;102530;277;105558;-62
2023/08/06 09:04:54;;;;;;;7.80;6.20;;;;;;;36.49;40.96;98555.24;102541;278;114432;-66
2023/08/06 09:07:38;;;;;;;8.40;6.90;;;;;;;36.26;42.16;98551.58;102546;277;93917;-66
2023/08/06 09:10:23;;;;;;;7.90;6.50;;;;;;;36.49;42.24;98551.15;102568;277;97131;-63
2023/08/06 09:13:00;;;;;;;9.70;6.50;;;;;;;36.06;41.38;98543.89;102515;277;120751;-64
2023/08/06 09:15:44;;;;;;;8.00;6.70;;;;;;;35.56;41.83;98544.27;102521;277;103962;-64
2023/08/06 09:18:37;;;;;;;8.20;7.30;;;;;;;34.86;42.43;98539.59;102474;277;114603;-65
2023/08/06 09:21:20;;;;;;;6.90;6.20;;;;;;;34.54;43.29;98534.38;102528;277;94429;-63
2023/08/06 09:24:08;;;;;;;7.60;6.30;;;;;;;34.20;43.55;98527.84;102568;277;96737;-63
2023/08/06 09:26:48;;;;;;;9.10;6.30;;;;;;;33.42;44.00;98526.48;102581;277;119132;-64
2023/08/06 09:29:32;;;;;;;7.00;6.30;;;;;;;33.01;44.84;98528.27;102553;277;104303;-55
2023/08/06 09:32:08;;;;;;;9.60;6.80;;;;;;;32.72;45.36;98522.25;102544;277;113196;-58
2023/08/06 09:34:59;;;;;;;7.30;6.40;;;;;;;32.63;45.98;98526.86;102516;277;94246;-55
2023/08/06 09:37:43;;;;;;;7.10;6.40;;;;;;;32.35;46.22;98522.69;102540;277;97594;-54
2023/08/06 09:40:36;;;;;;;8.50;6.20;;;;;;;32.44;46.63;98524.02;102557;277;119930;-54
2023/08/06 09:43:16;;;;;;;8.50;6.30;;;;;;;32.52;46.78;98523.67;102582;277;105528;-54
2023/08/06 09:45:59;;;;;;;8.80;6.30;;;;;;;32.47;46.47;98512.64;102544;266;114870;-57
2023/08/06 09:48:41;;;;;;;7.60;6.50;;;;;;;32.48;46.82;98515.77;102519;277;93684;-55
2023/08/06 09:51:24;;;;;;;6.60;6.00;;;;;;;32.35;47.16;98515.67;102559;277;96547;-55
2023/08/06 09:54:05;;;;;;;6.60;6.00;;;;;;;31.92;47.46;98518.14;102491;277;121128;-57
2023/08/06 09:56:41;;;;;;;8.60;6.00;;;;;;;31.88;47.84;98514.10;102541;277;105597;-58
2023/08/06 09:59:20;;;;;;;8.10;6.60;;;;;;;32.18;48.04;98512.64;102554;277;113777;-56
2023/08/06 10:02:02;;;;;;;6.60;5.90;;;;;;;32.26;47.91;98501.34;102507;277;93498;-57
2023/08/06 10:04:43;;;;;;;7.80;6.20;;;;;;;32.37;48.09;98496.77;102537;277;97244;-57
2023/08/06 10:07:18;;;;;;;6.90;6.20;;;;;;;32.55;48.18;98490.33;102560;277;120698;-58
2023/08/06 10:10:01;;;;;;;7.60;6.70;;;;;;;32.37;48.33;98486.86;102504;277;105985;-56
2023/08/06 10:12:47;;;;;;;6.70;6.00;;;;;;;32.09;48.18;98487.67;102507;277;113933;-56
2023/08/06 10:15:30;;;;;;;8.80;6.30;;;;;;;31.86;48.28;98486.45;102484;277;94845;-57
2023/08/06 10:18:10;;;;;;;8.20;5.80;;;;;;;31.87;48.35;98486.06;102534;277;96582;-57
2023/08/06 10:20:55;;;;;;;7.60;6.10;;;;;;;31.66;48.17;98476.39;102540;277;120381;-58
2023/08/06 10:23:41;;;;;;;6.40;5.80;;;;;;;31.59;48.63;98480.66;102547;277;104858;-57
2023/08/06 10:26:17;;;;;;;7.40;5.70;;;;;;;31.46;48.70;98474.48;102547;277;113935;-55
2023/08/06 10:28:53;;;;;;;8.70;6.40;;;;;;;31.45;49.01;98472.38;102537;277;93051;-52
2023/08/06 10:32:01;;;;;;;10.80;6.90;;;;;;;31.44;49.14;98465.17;102558;278;96480;-53
2023/08/06 10:35:03;;;;;;;6.60;5.90;;;;;;;31.60;49.33;98465.13;102518;277;120856;-54
2023/08/06 10:37:51;;;;;;;7.80;5.90;;;;;;;31.46;49.23;98463.79;102548;277;104613;-54
2023/08/06 10:40:30;;;;;;;8.40;6.10;;;;;;;31.53;49.24;98460.31;102522;278;113671;-53
2023/08/06 10:43:10;;;;;;;6.50;5.60;;;;;;;31.48;48.81;98459.35;102511;277;94400;-53
2023/08/06 10:45:54;;;;;;;7.40;6.00;;;;;;;31.28;48.69;98452.61;102542;277;97582;-54
2023/08/06 10:48:42;;;;;;;7.50;5.80;;;;;;;31.30;48.58;98454.48;102567;278;121423;-54
2023/08/06 10:51:23;;;;;;;7.10;6.20;;;;;;;31.41;48.53;98447.41;102529;277;105274;-55
2023/08/06 10:54:09;;;;;;;8.80;5.60;;;;;;;31.30;48.55;98444.20;102512;277;113181;-55
2023/08/06 10:56:50;;;;;;;6.70;6.10;;;;;;;31.15;48.77;98440.84;102566;277;94764;-55
2023/08/06 10:59:32;;;;;;;7.60;5.50;;;;;;;30.93;48.78;98439.64;102561;277;98234;-57
2023/08/06 11:02:16;;;;;;;7.60;6.40;;;;;;;30.70;48.66;98437.05;102540;277;120890;-57
2023/08/06 11:04:56;;;;;;;6.10;5.40;;;;;;;30.59;49.13;98429.90;102591;277;105544;-55
2023/08/06 11:07:36;;;;;;;9.00;5.90;;;;;;;30.80;49.35;98419.70;102545;277;114573;-56
2023/08/06 11:10:13;;;;;;;7.50;5.70;;;;;;;30.87;49.18;98418.48;102546;277;94694;-56
2023/08/06 11:12:48;;;;;;;7.50;5.80;;;;;;;30.71;48.86;98418.98;102177;277;524758;-56
2023/08/06 11:15:33;;;;;;;6.40;5.80;;;;;;;30.61;49.08;98409.55;102487;279;120322;-56
2023/08/06 11:18:11;;;;;;;6.00;5.40;;;;;;;30.66;49.17;98408.45;102562;277;105538;-56
2023/08/06 11:20:52;;;;;;;8.50;5.90;;;;;;;30.58;49.30;98400.41;102565;277;113439;-53
2023/08/06 11:23:39;;;;;;;6.60;5.40;;;;;;;30.49;49.51;98392.36;102567;277;93606;-53
2023/08/06 11:26:20;;;;;;;6.00;5.30;;;;;;;30.31;49.52;98392.54;102551;277;97246;-57
2023/08/06 11:28:59;;;;;;;8.70;5.10;;;;;;;30.23;49.84;98392.06;102524;277;120812;-54
2023/08/06 11:31:37;;;;;;;8.00;5.40;;;;;;;30.17;49.91;98393.38;102563;277;106356;-55
2023/08/06 11:34:16;;;;;;;6.40;5.30;;;;;;;30.25;49.96;98384.61;102559;277;112908;-55
2023/08/06 11:37:05;;;;;;;7.60;5.40;;;;;;;30.32;49.94;98380.61;102506;277;94512;-55
2023/08/06 11:39:56;;;;;;;7.80;5.10;;;;;;;30.21;50.16;98377.36;102556;277;98346;-54
2023/08/06 11:42:35;;;;;;;8.80;5.50;;;;;;;30.08;50.10;98378.08;102531;277;121334;-54
2023/08/06 11:45:12;;;;;;;6.50;5.60;;;;;;;29.93;50.27;98370.50;102573;277;106128;-54
2023/08/06 11:47:54;;;;;;;5.90;4.80;;;;;;;29.95;50.38;98377.46;102606;277;115374;-53
2023/08/06 11:50:31;;;;;;;9.10;6.10;;;;;;;30.30;50.42;98374.52;102599;277;94450;-54
2023/08/06 11:53:08;;;;;;;8.60;5.50;;;;;;;30.61;49.93;98365.59;102616;277;95682;-54
2023/08/06 11:55:51;;;;;;;6.80;5.20;;;;;;;30.77;50.09;98357.51;102603;277;120423;-57
2023/08/06 11:58:37;;;;;;;6.70;5.40;;;;;;;30.90;50.04;98351.30;102600;277;106265;-57
2023/08/06 12:01:17;;;;;;;7.20;5.30;;;;;;;31.04;49.50;98343.41;102582;277;114105;-57
2023/08/06 12:04:08;;;;;;;5.90;5.40;;;;;;;31.29;49.68;98338.86;102579;277;93769;-63
2023/08/06 12:06:54;;;;;;;5.80;5.20;;;;;;;31.49;49.29;98334.30;102597;277;96907;-66
2023/08/06 12:09:32;;;;;;;5.80;5.20;;;;;;;31.61;48.95;98325.94;102587;277;121528;-64
2023/08/06 12:12:16;;;;;;;7.90;5.50;;;;;;;31.67;48.97;98323.79;102544;277;106217;-65
2023/08/06 12:15:03;;;;;;;6.40;5.70;;;;;;;31.45;48.76;98329.62;102562;277;115515;-65
2023/08/06 12:17:44;;;;;;;6.20;5.60;;;;;;;31.05;48.89;98330.91;102538;277;94967;-63
2023/08/06 12:20:34;;;;;;;7.90;5.20;;;;;;;30.73;49.00;98335.54;102594;277;96531;-65